sensor_id;sensor_type;location;lat;lon;timestamp;P1;durP1;ratioP1;P2;durP2;ratioP2
76176;SDS011;64938;47.696;8.066;2022-12-01T00:01:39;14.60;;;10.13;;
76176;SDS011;64938;47.696;8.066;2022-12-01T00:04:05;13.73;;;9.83;;
76176;SDS011;64938;47.696;8.066;2022-12-01T00:06:31;14.43;;;9.47;;
76176;SDS011;64938;47.696;8.066;2022-12-01T00:08:56;18.50;;;11.20;;
76176;SDS011;64938;47.696;8.066;2022-12-01T00:11:43;14.80;;;10.20;;
76176;SDS011;64938;47.696;8.066;2022-12-01T00:14:08;16.53;;;11.20;;
76176;SDS011;64938;47.696;8.066;2022-12-01T00:16:34;16.43;;;11.17;;
76176;SDS011;64938;47.696;8.066;2022-12-01T00:18:59;16.40;;;10.90;;
76176;SDS011;64938;47.696;8.066;2022-12-01T00:21:25;14.03;;;10.37;;
76176;SDS011;64938;47.696;8.066;2022-12-01T00:23:52;15.97;;;11.43;;
76176;SDS011;64938;47.696;8.066;2022-12-01T00:26:20;17.73;;;11.43;;
76176;SDS011;64938;47.696;8.066;2022-12-01T00:28:50;14.53;;;11.50;;
76176;SDS011;64938;47.696;8.066;2022-12-01T00:31:17;18.80;;;12.53;;
76176;SDS011;64938;47.696;8.066;2022-12-01T00:33:42;18.77;;;11.60;;
76176;SDS011;64938;47.696;8.066;2022-12-01T00:36:08;17.17;;;11.63;;
76176;SDS011;64938;47.696;8.066;2022-12-01T00:38:34;18.13;;;12.03;;
76176;SDS011;64938;47.696;8.066;2022-12-01T00:40:59;16.13;;;11.57;;
76176;SDS011;64938;47.696;8.066;2022-12-01T00:43:25;18.97;;;11.90;;
76176;SDS011;64938;47.696;8.066;2022-12-01T00:45:50;17.77;;;11.70;;
76176;SDS011;64938;47.696;8.066;2022-12-01T00:48:16;18.83;;;12.77;;
76176;SDS011;64938;47.696;8.066;2022-12-01T00:50:42;19.77;;;13.10;;
76176;SDS011;64938;47.696;8.066;2022-12-01T00:53:08;18.97;;;13.27;;
76176;SDS011;64938;47.696;8.066;2022-12-01T00:55:33;17.30;;;12.80;;
76176;SDS011;64938;47.696;8.066;2022-12-01T00:58:01;19.63;;;13.50;;
76176;SDS011;64938;47.696;8.066;2022-12-01T01:00:26;21.90;;;14.30;;
76176;SDS011;64938;47.696;8.066;2022-12-01T01:02:52;21.63;;;14.43;;
76176;SDS011;64938;47.696;8.066;2022-12-01T01:05:17;20.40;;;14.10;;
76176;SDS011;64938;47.696;8.066;2022-12-01T01:07:43;22.33;;;14.60;;
76176;SDS011;64938;47.696;8.066;2022-12-01T01:10:09;21.83;;;13.80;;
76176;SDS011;64938;47.696;8.066;2022-12-01T01:12:35;22.67;;;14.77;;
76176;SDS011;64938;47.696;8.066;2022-12-01T01:15:01;22.57;;;15.00;;
76176;SDS011;64938;47.696;8.066;2022-12-01T01:17:26;21.87;;;14.67;;
76176;SDS011;64938;47.696;8.066;2022-12-01T01:19:52;21.50;;;14.70;;
76176;SDS011;64938;47.696;8.066;2022-12-01T01:22:17;23.10;;;13.90;;
76176;SDS011;64938;47.696;8.066;2022-12-01T01:24:43;24.53;;;16.60;;
76176;SDS011;64938;47.696;8.066;2022-12-01T01:27:09;24.50;;;14.80;;
76176;SDS011;64938;47.696;8.066;2022-12-01T01:29:34;24.07;;;14.93;;
76176;SDS011;64938;47.696;8.066;2022-12-01T01:32:00;24.07;;;16.50;;
76176;SDS011;64938;47.696;8.066;2022-12-01T01:34:26;22.60;;;15.20;;
76176;SDS011;64938;47.696;8.066;2022-12-01T01:36:51;26.50;;;16.53;;
76176;SDS011;64938;47.696;8.066;2022-12-01T01:39:17;21.57;;;14.07;;
76176;SDS011;64938;47.696;8.066;2022-12-01T01:41:42;22.27;;;15.60;;
76176;SDS011;64938;47.696;8.066;2022-12-01T01:47:12;24.77;;;15.07;;
76176;SDS011;64938;47.696;8.066;2022-12-01T01:49:39;22.50;;;14.10;;
76176;SDS011;64938;47.696;8.066;2022-12-01T01:52:05;22.87;;;15.40;;
76176;SDS011;64938;47.696;8.066;2022-12-01T01:54:32;20.80;;;13.37;;
76176;SDS011;64938;47.696;8.066;2022-12-01T01:57:04;20.37;;;14.77;;
76176;SDS011;64938;47.696;8.066;2022-12-01T01:59:40;23.77;;;15.37;;
76176;SDS011;64938;47.696;8.066;2022-12-01T02:02:09;23.13;;;14.43;;
76176;SDS011;64938;47.696;8.066;2022-12-01T02:04:36;19.30;;;13.97;;
76176;SDS011;64938;47.696;8.066;2022-12-01T02:07:12;23.20;;;14.60;;
76176;SDS011;64938;47.696;8.066;2022-12-01T02:09:40;23.10;;;15.23;;
76176;SDS011;64938;47.696;8.066;2022-12-01T02:17:21;21.97;;;14.47;;
76176;SDS011;64938;47.696;8.066;2022-12-01T02:25:44;24.20;;;14.67;;
76176;SDS011;64938;47.696;8.066;2022-12-01T02:31:09;21.87;;;14.90;;
76176;SDS011;64938;47.696;8.066;2022-12-01T02:36:27;19.67;;;14.67;;
76176;SDS011;64938;47.696;8.066;2022-12-01T02:39:01;19.83;;;14.53;;
76176;SDS011;64938;47.696;8.066;2022-12-01T02:41:51;19.40;;;13.73;;
76176;SDS011;64938;47.696;8.066;2022-12-01T02:44:24;21.87;;;13.50;;
76176;SDS011;64938;47.696;8.066;2022-12-01T02:49:38;21.63;;;14.93;;
76176;SDS011;64938;47.696;8.066;2022-12-01T02:52:05;20.57;;;13.70;;
76176;SDS011;64938;47.696;8.066;2022-12-01T02:54:31;22.67;;;14.80;;
76176;SDS011;64938;47.696;8.066;2022-12-01T02:56:58;21.30;;;14.60;;
76176;SDS011;64938;47.696;8.066;2022-12-01T02:59:24;22.90;;;14.50;;
76176;SDS011;64938;47.696;8.066;2022-12-01T03:07:25;22.53;;;13.63;;
76176;SDS011;64938;47.696;8.066;2022-12-01T03:10:07;20.27;;;13.30;;
76176;SDS011;64938;47.696;8.066;2022-12-01T03:12:47;20.80;;;12.73;;
76176;SDS011;64938;47.696;8.066;2022-12-01T03:18:12;20.63;;;13.63;;
76176;SDS011;64938;47.696;8.066;2022-12-01T03:21:11;18.40;;;13.13;;
76176;SDS011;64938;47.696;8.066;2022-12-01T03:23:35;18.93;;;13.73;;
76176;SDS011;64938;47.696;8.066;2022-12-01T03:26:05;19.80;;;13.90;;
76176;SDS011;64938;47.696;8.066;2022-12-01T03:28:34;20.10;;;13.90;;
76176;SDS011;64938;47.696;8.066;2022-12-01T03:31:02;22.43;;;15.20;;
76176;SDS011;64938;47.696;8.066;2022-12-01T03:33:32;20.03;;;14.20;;
76176;SDS011;64938;47.696;8.066;2022-12-01T03:36:02;22.97;;;16.43;;
76176;SDS011;64938;47.696;8.066;2022-12-01T03:38:31;21.40;;;14.43;;
76176;SDS011;64938;47.696;8.066;2022-12-01T03:41:06;20.97;;;14.17;;
76176;SDS011;64938;47.696;8.066;2022-12-01T03:43:36;19.43;;;13.30;;
76176;SDS011;64938;47.696;8.066;2022-12-01T03:48:51;20.17;;;14.20;;
76176;SDS011;64938;47.696;8.066;2022-12-01T03:51:27;21.80;;;14.57;;
76176;SDS011;64938;47.696;8.066;2022-12-01T03:53:58;19.17;;;13.70;;
76176;SDS011;64938;47.696;8.066;2022-12-01T03:56:32;19.50;;;13.93;;
76176;SDS011;64938;47.696;8.066;2022-12-01T03:59:01;21.10;;;14.23;;
76176;SDS011;64938;47.696;8.066;2022-12-01T04:01:29;24.20;;;15.80;;
76176;SDS011;64938;47.696;8.066;2022-12-01T04:04:02;22.70;;;15.00;;
76176;SDS011;64938;47.696;8.066;2022-12-01T04:06:30;24.87;;;14.90;;
76176;SDS011;64938;47.696;8.066;2022-12-01T04:08:56;21.90;;;14.47;;
76176;SDS011;64938;47.696;8.066;2022-12-01T04:11:21;18.50;;;13.43;;
76176;SDS011;64938;47.696;8.066;2022-12-01T04:14:05;21.27;;;14.10;;
76176;SDS011;64938;47.696;8.066;2022-12-01T04:16:31;19.93;;;14.00;;
76176;SDS011;64938;47.696;8.066;2022-12-01T04:18:57;22.67;;;13.70;;
76176;SDS011;64938;47.696;8.066;2022-12-01T04:21:23;23.50;;;15.03;;
76176;SDS011;64938;47.696;8.066;2022-12-01T04:23:48;18.73;;;13.43;;
76176;SDS011;64938;47.696;8.066;2022-12-01T04:26:26;21.97;;;14.50;;
76176;SDS011;64938;47.696;8.066;2022-12-01T04:28:53;22.23;;;14.20;;
76176;SDS011;64938;47.696;8.066;2022-12-01T04:31:18;20.80;;;13.63;;
76176;SDS011;64938;47.696;8.066;2022-12-01T04:33:44;17.27;;;12.80;;
76176;SDS011;64938;47.696;8.066;2022-12-01T04:36:09;18.77;;;12.00;;
76176;SDS011;64938;47.696;8.066;2022-12-01T04:38:35;17.67;;;12.20;;
76176;SDS011;64938;47.696;8.066;2022-12-01T04:41:10;15.10;;;11.40;;
76176;SDS011;64938;47.696;8.066;2022-12-01T04:43:36;14.67;;;11.77;;
76176;SDS011;64938;47.696;8.066;2022-12-01T04:46:02;13.80;;;10.93;;
76176;SDS011;64938;47.696;8.066;2022-12-01T04:48:28;18.60;;;12.43;;
76176;SDS011;64938;47.696;8.066;2022-12-01T04:50:54;17.80;;;12.63;;
76176;SDS011;64938;47.696;8.066;2022-12-01T04:53:19;18.07;;;13.20;;
76176;SDS011;64938;47.696;8.066;2022-12-01T04:55:45;16.50;;;11.20;;
76176;SDS011;64938;47.696;8.066;2022-12-01T04:58:11;18.40;;;12.70;;
76176;SDS011;64938;47.696;8.066;2022-12-01T05:00:38;16.97;;;12.97;;
76176;SDS011;64938;47.696;8.066;2022-12-01T05:03:04;18.53;;;13.40;;
76176;SDS011;64938;47.696;8.066;2022-12-01T05:05:29;15.90;;;10.97;;
76176;SDS011;64938;47.696;8.066;2022-12-01T05:07:57;13.63;;;10.00;;
76176;SDS011;64938;47.696;8.066;2022-12-01T05:10:23;13.17;;;9.97;;
76176;SDS011;64938;47.696;8.066;2022-12-01T05:12:48;14.00;;;10.60;;
76176;SDS011;64938;47.696;8.066;2022-12-01T05:15:14;13.37;;;10.50;;
76176;SDS011;64938;47.696;8.066;2022-12-01T05:17:40;14.30;;;10.40;;
76176;SDS011;64938;47.696;8.066;2022-12-01T05:20:06;15.83;;;11.93;;
76176;SDS011;64938;47.696;8.066;2022-12-01T05:22:51;15.77;;;10.73;;
76176;SDS011;64938;47.696;8.066;2022-12-01T05:25:17;14.93;;;11.73;;
76176;SDS011;64938;47.696;8.066;2022-12-01T05:27:43;14.27;;;10.30;;
76176;SDS011;64938;47.696;8.066;2022-12-01T05:30:09;20.60;;;13.83;;
76176;SDS011;64938;47.696;8.066;2022-12-01T05:32:35;13.90;;;10.30;;
76176;SDS011;64938;47.696;8.066;2022-12-01T05:35:00;18.00;;;13.00;;
76176;SDS011;64938;47.696;8.066;2022-12-01T05:37:26;23.90;;;16.03;;
76176;SDS011;64938;47.696;8.066;2022-12-01T05:39:57;20.80;;;14.30;;
76176;SDS011;64938;47.696;8.066;2022-12-01T05:42:22;20.27;;;14.07;;
76176;SDS011;64938;47.696;8.066;2022-12-01T05:44:48;16.60;;;11.97;;
76176;SDS011;64938;47.696;8.066;2022-12-01T05:47:14;15.80;;;12.00;;
76176;SDS011;64938;47.696;8.066;2022-12-01T05:49:39;17.10;;;12.17;;
76176;SDS011;64938;47.696;8.066;2022-12-01T05:52:07;19.57;;;12.60;;
76176;SDS011;64938;47.696;8.066;2022-12-01T05:54:33;17.10;;;12.00;;
76176;SDS011;64938;47.696;8.066;2022-12-01T05:56:58;17.33;;;13.23;;
76176;SDS011;64938;47.696;8.066;2022-12-01T05:59:24;19.53;;;12.70;;
76176;SDS011;64938;47.696;8.066;2022-12-01T06:01:49;17.87;;;12.80;;
76176;SDS011;64938;47.696;8.066;2022-12-01T06:04:15;16.77;;;11.27;;
76176;SDS011;64938;47.696;8.066;2022-12-01T06:06:40;17.90;;;12.20;;
76176;SDS011;64938;47.696;8.066;2022-12-01T06:09:07;16.83;;;12.03;;
76176;SDS011;64938;47.696;8.066;2022-12-01T06:11:33;16.77;;;12.27;;
76176;SDS011;64938;47.696;8.066;2022-12-01T06:13:58;17.63;;;12.23;;
76176;SDS011;64938;47.696;8.066;2022-12-01T06:16:24;16.80;;;12.47;;
76176;SDS011;64938;47.696;8.066;2022-12-01T06:18:49;17.90;;;12.37;;
76176;SDS011;64938;47.696;8.066;2022-12-01T06:21:15;18.67;;;13.53;;
76176;SDS011;64938;47.696;8.066;2022-12-01T06:23:41;20.97;;;13.50;;
76176;SDS011;64938;47.696;8.066;2022-12-01T06:26:06;17.93;;;13.27;;
76176;SDS011;64938;47.696;8.066;2022-12-01T06:28:32;16.10;;;12.07;;
76176;SDS011;64938;47.696;8.066;2022-12-01T06:30:57;19.10;;;12.67;;
76176;SDS011;64938;47.696;8.066;2022-12-01T06:33:23;20.50;;;14.67;;
76176;SDS011;64938;47.696;8.066;2022-12-01T06:35:55;23.27;;;14.83;;
76176;SDS011;64938;47.696;8.066;2022-12-01T06:38:32;21.00;;;14.03;;
76176;SDS011;64938;47.696;8.066;2022-12-01T06:40:58;17.33;;;13.60;;
76176;SDS011;64938;47.696;8.066;2022-12-01T06:43:24;21.30;;;14.53;;
76176;SDS011;64938;47.696;8.066;2022-12-01T06:45:50;22.00;;;13.73;;
76176;SDS011;64938;47.696;8.066;2022-12-01T06:48:16;21.70;;;14.70;;
76176;SDS011;64938;47.696;8.066;2022-12-01T06:50:41;17.33;;;11.90;;
76176;SDS011;64938;47.696;8.066;2022-12-01T06:53:07;21.17;;;12.57;;
76176;SDS011;64938;47.696;8.066;2022-12-01T06:55:34;21.20;;;13.77;;
76176;SDS011;64938;47.696;8.066;2022-12-01T06:58:00;21.40;;;13.50;;
76176;SDS011;64938;47.696;8.066;2022-12-01T07:00:26;25.97;;;16.30;;
76176;SDS011;64938;47.696;8.066;2022-12-01T07:02:51;20.30;;;14.00;;
76176;SDS011;64938;47.696;8.066;2022-12-01T07:05:17;22.40;;;13.73;;
76176;SDS011;64938;47.696;8.066;2022-12-01T07:07:42;24.70;;;15.03;;
76176;SDS011;64938;47.696;8.066;2022-12-01T07:10:08;26.10;;;15.87;;
76176;SDS011;64938;47.696;8.066;2022-12-01T07:12:34;23.23;;;15.17;;
76176;SDS011;64938;47.696;8.066;2022-12-01T07:15:00;27.87;;;16.00;;
76176;SDS011;64938;47.696;8.066;2022-12-01T07:17:26;25.00;;;15.63;;
76176;SDS011;64938;47.696;8.066;2022-12-01T07:19:52;26.07;;;17.60;;
76176;SDS011;64938;47.696;8.066;2022-12-01T07:22:17;26.27;;;15.97;;
76176;SDS011;64938;47.696;8.066;2022-12-01T07:24:43;25.50;;;15.93;;
76176;SDS011;64938;47.696;8.066;2022-12-01T07:27:09;27.30;;;15.60;;
76176;SDS011;64938;47.696;8.066;2022-12-01T07:29:38;23.50;;;14.10;;
76176;SDS011;64938;47.696;8.066;2022-12-01T07:32:04;23.17;;;13.93;;
76176;SDS011;64938;47.696;8.066;2022-12-01T07:34:29;21.80;;;13.87;;
76176;SDS011;64938;47.696;8.066;2022-12-01T07:36:55;19.40;;;12.73;;
76176;SDS011;64938;47.696;8.066;2022-12-01T07:39:24;19.00;;;11.97;;
76176;SDS011;64938;47.696;8.066;2022-12-01T07:41:49;20.30;;;12.83;;
76176;SDS011;64938;47.696;8.066;2022-12-01T07:44:20;18.10;;;12.00;;
76176;SDS011;64938;47.696;8.066;2022-12-01T07:46:45;16.40;;;11.67;;
76176;SDS011;64938;47.696;8.066;2022-12-01T07:49:11;17.77;;;12.00;;
76176;SDS011;64938;47.696;8.066;2022-12-01T07:51:39;20.53;;;13.33;;
76176;SDS011;64938;47.696;8.066;2022-12-01T07:54:04;18.50;;;12.20;;
76176;SDS011;64938;47.696;8.066;2022-12-01T07:56:31;18.17;;;11.33;;
76176;SDS011;64938;47.696;8.066;2022-12-01T07:58:56;16.53;;;10.53;;
76176;SDS011;64938;47.696;8.066;2022-12-01T08:01:22;17.33;;;10.53;;
76176;SDS011;64938;47.696;8.066;2022-12-01T08:03:52;16.13;;;10.83;;
76176;SDS011;64938;47.696;8.066;2022-12-01T08:06:19;16.33;;;11.30;;
76176;SDS011;64938;47.696;8.066;2022-12-01T08:08:47;13.20;;;9.20;;
76176;SDS011;64938;47.696;8.066;2022-12-01T08:11:15;12.90;;;9.13;;
76176;SDS011;64938;47.696;8.066;2022-12-01T08:13:45;12.60;;;8.77;;
76176;SDS011;64938;47.696;8.066;2022-12-01T08:16:12;14.37;;;9.60;;
76176;SDS011;64938;47.696;8.066;2022-12-01T08:18:39;13.07;;;9.10;;
76176;SDS011;64938;47.696;8.066;2022-12-01T08:21:06;12.87;;;9.00;;
76176;SDS011;64938;47.696;8.066;2022-12-01T08:23:32;14.03;;;9.63;;
76176;SDS011;64938;47.696;8.066;2022-12-01T08:26:01;11.23;;;8.83;;
76176;SDS011;64938;47.696;8.066;2022-12-01T08:28:34;12.30;;;8.57;;
76176;SDS011;64938;47.696;8.066;2022-12-01T08:31:05;11.23;;;8.00;;
76176;SDS011;64938;47.696;8.066;2022-12-01T08:33:38;11.93;;;8.43;;
76176;SDS011;64938;47.696;8.066;2022-12-01T08:36:03;11.67;;;9.47;;
76176;SDS011;64938;47.696;8.066;2022-12-01T08:38:29;8.90;;;7.40;;
76176;SDS011;64938;47.696;8.066;2022-12-01T08:40:58;13.43;;;9.20;;
76176;SDS011;64938;47.696;8.066;2022-12-01T08:43:33;9.20;;;6.80;;
76176;SDS011;64938;47.696;8.066;2022-12-01T08:46:04;10.93;;;7.90;;
76176;SDS011;64938;47.696;8.066;2022-12-01T08:48:30;11.57;;;8.23;;
76176;SDS011;64938;47.696;8.066;2022-12-01T08:51:02;12.00;;;7.80;;
76176;SDS011;64938;47.696;8.066;2022-12-01T08:53:30;11.33;;;7.97;;
76176;SDS011;64938;47.696;8.066;2022-12-01T08:56:03;10.67;;;7.73;;
76176;SDS011;64938;47.696;8.066;2022-12-01T08:58:37;12.17;;;9.07;;
76176;SDS011;64938;47.696;8.066;2022-12-01T09:01:04;9.40;;;6.40;;
76176;SDS011;64938;47.696;8.066;2022-12-01T09:03:32;10.70;;;7.17;;
76176;SDS011;64938;47.696;8.066;2022-12-01T09:08:37;9.70;;;7.60;;
76176;SDS011;64938;47.696;8.066;2022-12-01T09:11:08;9.33;;;7.40;;
76176;SDS011;64938;47.696;8.066;2022-12-01T09:13:36;8.70;;;6.47;;
76176;SDS011;64938;47.696;8.066;2022-12-01T09:16:04;8.40;;;6.27;;
76176;SDS011;64938;47.696;8.066;2022-12-01T09:18:32;9.07;;;6.13;;
76176;SDS011;64938;47.696;8.066;2022-12-01T09:20:57;9.37;;;6.70;;
76176;SDS011;64938;47.696;8.066;2022-12-01T09:23:23;7.57;;;5.70;;
76176;SDS011;64938;47.696;8.066;2022-12-01T09:25:49;6.83;;;5.80;;
76176;SDS011;64938;47.696;8.066;2022-12-01T09:28:16;7.37;;;6.37;;
76176;SDS011;64938;47.696;8.066;2022-12-01T09:30:45;7.00;;;5.57;;
76176;SDS011;64938;47.696;8.066;2022-12-01T09:33:11;7.33;;;5.50;;
76176;SDS011;64938;47.696;8.066;2022-12-01T09:35:37;8.33;;;5.93;;
76176;SDS011;64938;47.696;8.066;2022-12-01T09:38:03;7.27;;;5.70;;
76176;SDS011;64938;47.696;8.066;2022-12-01T09:40:38;8.30;;;5.90;;
76176;SDS011;64938;47.696;8.066;2022-12-01T09:43:10;7.10;;;5.40;;
76176;SDS011;64938;47.696;8.066;2022-12-01T09:45:46;8.07;;;5.97;;
76176;SDS011;64938;47.696;8.066;2022-12-01T09:48:24;6.83;;;5.57;;
76176;SDS011;64938;47.696;8.066;2022-12-01T09:50:51;9.53;;;6.97;;
76176;SDS011;64938;47.696;8.066;2022-12-01T09:53:19;7.97;;;6.30;;
76176;SDS011;64938;47.696;8.066;2022-12-01T09:55:47;8.07;;;6.47;;
76176;SDS011;64938;47.696;8.066;2022-12-01T09:58:14;8.77;;;6.97;;
76176;SDS011;64938;47.696;8.066;2022-12-01T10:00:42;9.20;;;6.83;;
76176;SDS011;64938;47.696;8.066;2022-12-01T10:05:54;7.80;;;6.30;;
76176;SDS011;64938;47.696;8.066;2022-12-01T10:08:23;9.90;;;6.90;;
76176;SDS011;64938;47.696;8.066;2022-12-01T10:10:59;10.17;;;7.30;;
76176;SDS011;64938;47.696;8.066;2022-12-01T10:13:45;8.70;;;7.37;;
76176;SDS011;64938;47.696;8.066;2022-12-01T10:16:11;9.80;;;7.03;;
76176;SDS011;64938;47.696;8.066;2022-12-01T10:27:07;8.00;;;6.97;;
76176;SDS011;64938;47.696;8.066;2022-12-01T10:29:49;7.43;;;5.43;;
76176;SDS011;64938;47.696;8.066;2022-12-01T10:32:44;7.30;;;5.90;;
76176;SDS011;64938;47.696;8.066;2022-12-01T10:35:14;7.10;;;5.40;;
76176;SDS011;64938;47.696;8.066;2022-12-01T10:37:41;8.40;;;6.40;;
76176;SDS011;64938;47.696;8.066;2022-12-01T10:40:12;8.03;;;5.77;;
76176;SDS011;64938;47.696;8.066;2022-12-01T10:45:13;10.03;;;7.20;;
76176;SDS011;64938;47.696;8.066;2022-12-01T10:48:05;6.57;;;5.23;;
76176;SDS011;64938;47.696;8.066;2022-12-01T10:50:41;9.20;;;6.33;;
76176;SDS011;64938;47.696;8.066;2022-12-01T10:53:24;8.43;;;6.03;;
76176;SDS011;64938;47.696;8.066;2022-12-01T10:55:58;7.70;;;5.40;;
76176;SDS011;64938;47.696;8.066;2022-12-01T10:58:26;7.10;;;5.83;;
76176;SDS011;64938;47.696;8.066;2022-12-01T11:00:56;8.43;;;6.50;;
76176;SDS011;64938;47.696;8.066;2022-12-01T11:03:25;10.20;;;6.27;;
76176;SDS011;64938;47.696;8.066;2022-12-01T11:05:56;6.50;;;5.80;;
76176;SDS011;64938;47.696;8.066;2022-12-01T11:08:44;7.50;;;6.00;;
76176;SDS011;64938;47.696;8.066;2022-12-01T11:13:48;6.23;;;5.30;;
76176;SDS011;64938;47.696;8.066;2022-12-01T11:16:30;6.33;;;5.17;;
76176;SDS011;64938;47.696;8.066;2022-12-01T11:21:47;6.57;;;5.10;;
76176;SDS011;64938;47.696;8.066;2022-12-01T11:24:24;6.10;;;5.10;;
76176;SDS011;64938;47.696;8.066;2022-12-01T11:26:52;7.23;;;5.30;;
76176;SDS011;64938;47.696;8.066;2022-12-01T11:34:34;6.60;;;5.95;;
76176;SDS011;64938;47.696;8.066;2022-12-01T11:52:59;7.80;;;6.40;;
76176;SDS011;64938;47.696;8.066;2022-12-01T11:55:28;6.33;;;5.47;;
76176;SDS011;64938;47.696;8.066;2022-12-01T11:57:58;6.17;;;4.97;;
76176;SDS011;64938;47.696;8.066;2022-12-01T12:00:27;5.80;;;4.77;;
76176;SDS011;64938;47.696;8.066;2022-12-01T12:08:45;6.00;;;4.83;;
76176;SDS011;64938;47.696;8.066;2022-12-01T12:11:21;5.57;;;4.60;;
76176;SDS011;64938;47.696;8.066;2022-12-01T12:22:21;8.30;;;5.30;;
76176;SDS011;64938;47.696;8.066;2022-12-01T12:25:01;5.93;;;4.90;;
76176;SDS011;64938;47.696;8.066;2022-12-01T12:27:40;6.87;;;5.40;;
76176;SDS011;64938;47.696;8.066;2022-12-01T12:30:14;7.20;;;5.10;;
76176;SDS011;64938;47.696;8.066;2022-12-01T12:41:24;5.87;;;4.83;;
76176;SDS011;64938;47.696;8.066;2022-12-01T12:44:03;6.40;;;4.80;;
76176;SDS011;64938;47.696;8.066;2022-12-01T12:52:00;5.50;;;4.97;;
76176;SDS011;64938;47.696;8.066;2022-12-01T12:57:02;6.00;;;4.90;;
76176;SDS011;64938;47.696;8.066;2022-12-01T12:59:33;6.10;;;4.90;;
76176;SDS011;64938;47.696;8.066;2022-12-01T13:08:01;5.73;;;4.47;;
76176;SDS011;64938;47.696;8.066;2022-12-01T13:13:09;5.70;;;5.10;;
76176;SDS011;64938;47.696;8.066;2022-12-01T13:15:39;7.00;;;5.37;;
76176;SDS011;64938;47.696;8.066;2022-12-01T13:18:11;6.40;;;5.50;;
76176;SDS011;64938;47.696;8.066;2022-12-01T13:20:44;5.73;;;5.03;;
76176;SDS011;64938;47.696;8.066;2022-12-01T13:23:12;7.13;;;5.40;;
76176;SDS011;64938;47.696;8.066;2022-12-01T13:25:40;6.07;;;4.93;;
76176;SDS011;64938;47.696;8.066;2022-12-01T13:31:01;6.70;;;5.90;;
76176;SDS011;64938;47.696;8.066;2022-12-01T13:33:31;6.53;;;5.33;;
76176;SDS011;64938;47.696;8.066;2022-12-01T13:35:57;6.60;;;5.90;;
76176;SDS011;64938;47.696;8.066;2022-12-01T13:43:43;7.57;;;5.50;;
76176;SDS011;64938;47.696;8.066;2022-12-01T14:13:17;5.90;;;5.10;;
76176;SDS011;64938;47.696;8.066;2022-12-01T14:15:49;8.27;;;5.80;;
76176;SDS011;64938;47.696;8.066;2022-12-01T14:21:01;8.03;;;6.07;;
76176;SDS011;64938;47.696;8.066;2022-12-01T14:23:31;7.80;;;5.93;;
76176;SDS011;64938;47.696;8.066;2022-12-01T14:32:01;8.00;;;5.90;;
76176;SDS011;64938;47.696;8.066;2022-12-01T14:36:42;7.60;;;5.40;;
76176;SDS011;64938;47.696;8.066;2022-12-01T14:39:12;8.80;;;5.70;;
76176;SDS011;64938;47.696;8.066;2022-12-01T14:41:42;7.90;;;5.80;;
76176;SDS011;64938;47.696;8.066;2022-12-01T14:44:17;7.50;;;5.67;;
76176;SDS011;64938;47.696;8.066;2022-12-01T14:46:52;6.47;;;5.80;;
76176;SDS011;64938;47.696;8.066;2022-12-01T14:49:27;7.80;;;6.10;;
76176;SDS011;64938;47.696;8.066;2022-12-01T14:52:01;6.20;;;5.13;;
76176;SDS011;64938;47.696;8.066;2022-12-01T14:54:31;7.20;;;6.50;;
76176;SDS011;64938;47.696;8.066;2022-12-01T14:57:00;8.00;;;6.60;;
76176;SDS011;64938;47.696;8.066;2022-12-01T14:59:28;6.03;;;5.43;;
76176;SDS011;64938;47.696;8.066;2022-12-01T15:01:55;8.10;;;6.13;;
76176;SDS011;64938;47.696;8.066;2022-12-01T15:04:22;8.67;;;6.87;;
76176;SDS011;64938;47.696;8.066;2022-12-01T15:06:52;9.77;;;7.33;;
76176;SDS011;64938;47.696;8.066;2022-12-01T15:09:19;7.70;;;5.90;;
76176;SDS011;64938;47.696;8.066;2022-12-01T15:16:58;8.67;;;6.00;;
76176;SDS011;64938;47.696;8.066;2022-12-01T15:19:28;7.87;;;5.47;;
76176;SDS011;64938;47.696;8.066;2022-12-01T15:21:55;8.03;;;6.90;;
76176;SDS011;64938;47.696;8.066;2022-12-01T15:24:22;7.27;;;5.33;;
76176;SDS011;64938;47.696;8.066;2022-12-01T15:26:50;7.77;;;5.97;;
76176;SDS011;64938;47.696;8.066;2022-12-01T15:29:19;8.03;;;6.20;;
76176;SDS011;64938;47.696;8.066;2022-12-01T15:31:50;9.50;;;7.60;;
76176;SDS011;64938;47.696;8.066;2022-12-01T15:34:20;8.80;;;6.87;;
76176;SDS011;64938;47.696;8.066;2022-12-01T15:36:48;7.23;;;6.43;;
76176;SDS011;64938;47.696;8.066;2022-12-01T15:39:16;7.50;;;6.27;;
76176;SDS011;64938;47.696;8.066;2022-12-01T15:41:44;10.03;;;7.27;;
76176;SDS011;64938;47.696;8.066;2022-12-01T15:46:58;8.90;;;7.03;;
76176;SDS011;64938;47.696;8.066;2022-12-01T15:51:54;9.80;;;6.67;;
76176;SDS011;64938;47.696;8.066;2022-12-01T15:54:28;9.00;;;7.23;;
76176;SDS011;64938;47.696;8.066;2022-12-01T15:56:55;7.80;;;6.20;;
76176;SDS011;64938;47.696;8.066;2022-12-01T16:01:48;8.93;;;7.10;;
76176;SDS011;64938;47.696;8.066;2022-12-01T16:04:15;9.47;;;7.00;;
76176;SDS011;64938;47.696;8.066;2022-12-01T16:06:50;10.30;;;6.70;;
76176;SDS011;64938;47.696;8.066;2022-12-01T16:09:34;8.40;;;7.37;;
76176;SDS011;64938;47.696;8.066;2022-12-01T16:14:28;8.60;;;6.40;;
76176;SDS011;64938;47.696;8.066;2022-12-01T16:16:56;9.77;;;7.20;;
76176;SDS011;64938;47.696;8.066;2022-12-01T16:19:25;8.40;;;6.27;;
76176;SDS011;64938;47.696;8.066;2022-12-01T16:24:21;9.70;;;6.63;;
76176;SDS011;64938;47.696;8.066;2022-12-01T16:26:58;15.40;;;7.90;;
76176;SDS011;64938;47.696;8.066;2022-12-01T16:29:28;10.87;;;7.20;;
76176;SDS011;64938;47.696;8.066;2022-12-01T16:32:10;8.00;;;6.93;;
76176;SDS011;64938;47.696;8.066;2022-12-01T16:34:41;10.63;;;7.93;;
76176;SDS011;64938;47.696;8.066;2022-12-01T16:37:09;9.70;;;7.60;;
76176;SDS011;64938;47.696;8.066;2022-12-01T16:39:35;10.30;;;7.80;;
76176;SDS011;64938;47.696;8.066;2022-12-01T16:42:01;8.53;;;7.53;;
76176;SDS011;64938;47.696;8.066;2022-12-01T16:44:27;9.30;;;7.00;;
76176;SDS011;64938;47.696;8.066;2022-12-01T16:46:53;10.60;;;7.70;;
76176;SDS011;64938;47.696;8.066;2022-12-01T16:49:20;8.60;;;6.87;;
76176;SDS011;64938;47.696;8.066;2022-12-01T16:51:45;8.93;;;7.07;;
76176;SDS011;64938;47.696;8.066;2022-12-01T16:54:11;10.70;;;7.90;;
76176;SDS011;64938;47.696;8.066;2022-12-01T16:56:37;9.77;;;7.13;;
76176;SDS011;64938;47.696;8.066;2022-12-01T16:59:02;11.00;;;6.90;;
76176;SDS011;64938;47.696;8.066;2022-12-01T17:01:29;9.40;;;6.87;;
76176;SDS011;64938;47.696;8.066;2022-12-01T17:03:56;9.30;;;7.10;;
76176;SDS011;64938;47.696;8.066;2022-12-01T17:06:21;12.57;;;8.50;;
76176;SDS011;64938;47.696;8.066;2022-12-01T17:08:47;14.87;;;10.10;;
76176;SDS011;64938;47.696;8.066;2022-12-01T17:11:13;9.83;;;6.53;;
76176;SDS011;64938;47.696;8.066;2022-12-01T17:13:39;11.70;;;7.53;;
76176;SDS011;64938;47.696;8.066;2022-12-01T17:16:05;9.67;;;7.70;;
76176;SDS011;64938;47.696;8.066;2022-12-01T17:18:33;8.83;;;6.97;;
76176;SDS011;64938;47.696;8.066;2022-12-01T17:21:02;8.70;;;7.67;;
76176;SDS011;64938;47.696;8.066;2022-12-01T17:24:38;10.07;;;7.75;;
76176;SDS011;64938;47.696;8.066;2022-12-01T17:27:03;11.27;;;8.13;;
76176;SDS011;64938;47.696;8.066;2022-12-01T17:29:29;8.77;;;6.73;;
76176;SDS011;64938;47.696;8.066;2022-12-01T17:31:54;8.43;;;6.67;;
76176;SDS011;64938;47.696;8.066;2022-12-01T17:34:20;7.10;;;6.40;;
76176;SDS011;64938;47.696;8.066;2022-12-01T17:36:48;6.60;;;5.77;;
76176;SDS011;64938;47.696;8.066;2022-12-01T17:39:15;6.80;;;5.57;;
76176;SDS011;64938;47.696;8.066;2022-12-01T17:41:41;11.00;;;6.90;;
76176;SDS011;64938;47.696;8.066;2022-12-01T17:44:06;8.07;;;6.53;;